Time;durP1;ratioP1;P1;durP2;ratioP2;P2;SDS_P1;SDS_P2;PMS_P1;PMS_P2;Temp;Humidity;BMP_temperature;BMP_pressure;BME280_temperature;BME280_humidity;BME280_pressure;Samples;Min_cycle;Max_cycle;Signal;HPM_P1;HPM_P2
2022/02/13 00:00:17;;;;;;;14.60;11.30;;;5.30;96.60;;;;;;5111771;27;20219;-63
2022/02/13 00:02:45;;;;;;;13.63;12.18;;;5.30;96.60;;;;;;5112128;27;20276;-63
2022/02/13 00:05:13;;;;;;;14.73;12.00;;;5.30;96.70;;;;;;5098825;28;20227;-63
2022/02/13 00:07:40;;;;;;;11.07;9.90;;;5.30;96.60;;;;;;5112501;28;20219;-63
2022/02/13 00:10:10;;;;;;;12.68;11.38;;;5.30;96.60;;;;;;5098443;27;20223;-63
2022/02/13 00:12:37;;;;;;;11.38;10.18;;;5.30;96.60;;;;;;5112317;27;20737;-63
2022/02/13 00:15:05;;;;;;;13.13;10.35;;;5.30;96.70;;;;;;5104675;28;20216;-63
2022/02/13 00:17:31;;;;;;;13.02;10.85;;;5.30;96.60;;;;;;5105837;28;20237;-63
2022/02/13 00:19:59;;;;;;;11.77;10.30;;;5.30;96.60;;;;;;5099406;27;20675;-63
2022/02/13 00:22:26;;;;;;;12.20;11.00;;;5.30;96.70;;;;;;5112230;27;20306;-63
2022/02/13 00:24:53;;;;;;;14.63;12.10;;;5.30;96.80;;;;;;5111993;27;20250;-63
2022/02/13 00:27:21;;;;;;;13.02;11.15;;;5.30;96.80;;;;;;5112063;27;20251;-63
2022/02/13 00:29:48;;;;;;;13.18;11.80;;;5.30;96.80;;;;;;5111719;27;20219;-63
2022/02/13 00:32:15;;;;;;;14.95;12.85;;;5.40;96.80;;;;;;5112232;28;20223;-63
2022/02/13 00:34:44;;;;;;;16.52;13.25;;;5.40;96.70;;;;;;5103366;28;20223;-63
2022/02/13 00:37:11;;;;;;;14.48;13.07;;;5.40;96.70;;;;;;5105076;28;20307;-64
2022/02/13 00:39:37;;;;;;;13.07;10.85;;;5.40;96.80;;;;;;5101520;28;20211;-63
2022/02/13 00:42:05;;;;;;;13.38;11.27;;;5.30;96.50;;;;;;5111995;27;20219;-63
2022/02/13 00:44:33;;;;;;;14.05;12.52;;;5.30;96.60;;;;;;5101823;28;20238;-64
2022/02/13 00:47:00;;;;;;;19.83;13.55;;;5.30;96.60;;;;;;5110352;27;20246;-63
2022/02/13 00:49:27;;;;;;;16.50;12.88;;;5.20;96.50;;;;;;5112110;28;20219;-63
2022/02/13 00:51:54;;;;;;;12.18;10.25;;;5.30;96.60;;;;;;5111313;27;20219;-63
2022/02/13 00:54:21;;;;;;;13.55;12.20;;;5.30;96.60;;;;;;5112256;27;20219;-63
2022/02/13 00:56:49;;;;;;;10.88;9.55;;;5.30;96.50;;;;;;5111324;27;20237;-64
2022/02/13 00:59:15;;;;;;;11.57;10.38;;;5.30;96.60;;;;;;5112170;28;20219;-63
2022/02/13 01:01:44;;;;;;;13.98;11.70;;;5.30;96.60;;;;;;5111870;27;20299;-64
2022/02/13 01:04:11;;;;;;;15.10;10.85;;;5.30;96.60;;;;;;5099547;27;20252;-63
2022/02/13 01:06:38;;;;;;;18.85;10.10;;;5.30;96.60;;;;;;5104111;28;20241;-64
2022/02/13 01:09:05;;;;;;;15.88;13.55;;;5.20;96.60;;;;;;5098936;28;20247;-63
2022/02/13 01:11:32;;;;;;;12.80;10.88;;;5.20;96.60;;;;;;5111385;27;20235;-63
2022/02/13 01:13:59;;;;;;;13.38;11.20;;;5.20;96.60;;;;;;5115508;28;20309;-63
2022/02/13 01:16:27;;;;;;;11.68;10.18;;;5.10;96.70;;;;;;5102229;27;20219;-63
2022/02/13 01:18:56;;;;;;;13.50;9.60;;;5.20;96.80;;;;;;5101777;28;20235;-63
2022/02/13 01:21:23;;;;;;;13.10;10.10;;;5.20;96.70;;;;;;5109974;27;20234;-63
2022/02/13 01:23:50;;;;;;;10.98;9.85;;;5.10;96.70;;;;;;5114839;27;20707;-63
2022/02/13 01:26:19;;;;;;;10.63;9.68;;;5.20;96.80;;;;;;5115717;28;20233;-63
2022/02/13 01:28:46;;;;;;;12.63;10.18;;;5.20;96.70;;;;;;5109231;27;20553;-63
2022/02/13 01:31:14;;;;;;;14.38;12.82;;;5.20;96.70;;;;;;5114653;27;20223;-64
2022/02/13 01:33:41;;;;;;;12.10;10.90;;;5.20;96.60;;;;;;5114727;27;20265;-64
2022/02/13 01:36:09;;;;;;;15.10;12.25;;;5.20;96.60;;;;;;5114978;28;20585;-63
2022/02/13 01:38:36;;;;;;;11.23;9.35;;;5.20;96.60;;;;;;5101794;28;20227;-64
2022/02/13 01:41:04;;;;;;;12.88;9.38;;;5.30;96.50;;;;;;5114432;27;20227;-63
2022/02/13 01:43:32;;;;;;;10.23;9.23;;;5.30;96.50;;;;;;5112786;28;20219;-64
2022/02/13 01:45:59;;;;;;;10.60;9.50;;;5.20;96.50;;;;;;5103968;27;20600;-64
2022/02/13 01:48:26;;;;;;;11.20;9.77;;;5.20;96.50;;;;;;5115222;28;20722;-64
2022/02/13 01:50:53;;;;;;;14.95;10.25;;;5.20;96.60;;;;;;5114531;27;20254;-64
2022/02/13 01:53:21;;;;;;;11.32;10.25;;;5.20;96.50;;;;;;5111285;28;20295;-63
2022/02/13 01:55:49;;;;;;;12.40;11.10;;;5.20;96.50;;;;;;5104573;28;20295;-63
2022/02/13 01:58:16;;;;;;;12.80;9.93;;;5.20;96.50;;;;;;5114182;27;20234;-63
2022/02/13 02:00:43;;;;;;;9.70;8.70;;;5.20;96.50;;;;;;5112925;27;20235;-64
2022/02/13 02:03:10;;;;;;;12.40;9.00;;;5.10;96.50;;;;;;5113916;27;20247;-63
2022/02/13 02:05:37;;;;;;;13.55;9.00;;;5.10;96.60;;;;;;5114817;28;20230;-64
2022/02/13 02:08:04;;;;;;;10.18;8.85;;;5.10;96.60;;;;;;5100158;28;20230;-64
2022/02/13 02:10:33;;;;;;;11.43;10.23;;;5.10;96.60;;;;;;5109521;27;20326;-64
2022/02/13 02:13:01;;;;;;;9.07;8.18;;;5.10;96.70;;;;;;5112204;28;20565;-64
2022/02/13 02:15:28;;;;;;;25.50;17.52;;;5.10;96.60;;;;;;5101154;27;20233;-64
2022/02/13 02:17:55;;;;;;;12.52;9.68;;;5.10;96.60;;;;;;5107247;28;20602;-65
2022/02/13 02:20:21;;;;;;;10.57;8.80;;;5.20;97.10;;;;;;5106349;28;20238;-63
2022/02/13 02:22:49;;;;;;;10.63;9.63;;;5.10;96.70;;;;;;5100214;27;20669;-64
2022/02/13 02:25:17;;;;;;;9.40;8.50;;;5.20;96.70;;;;;;5113702;28;20280;-63
2022/02/13 02:27:44;;;;;;;20.48;16.52;;;5.20;96.60;;;;;;5108057;28;20222;-64
2022/02/13 02:30:12;;;;;;;16.55;13.55;;;5.20;96.60;;;;;;5106642;27;20276;-63
2022/02/13 02:32:39;;;;;;;13.30;11.05;;;5.20;96.60;;;;;;5114147;27;20237;-63
2022/02/13 02:35:07;;;;;;;10.15;9.15;;;5.20;96.60;;;;;;5113954;27;20224;-63
2022/02/13 02:37:34;;;;;;;9.73;8.75;;;5.10;96.40;;;;;;5100517;28;20306;-64
2022/02/13 02:40:01;;;;;;;9.73;8.73;;;5.20;96.60;;;;;;5113200;27;20223;-63
2022/02/13 02:42:32;;;;;;;11.35;9.50;;;5.20;96.40;;;;;;5101001;28;20698;-64
2022/02/13 02:44:59;;;;;;;11.52;9.25;;;5.20;96.60;;;;;;5100937;27;20348;-64
2022/02/13 02:47:25;;;;;;;10.40;9.32;;;5.10;96.40;;;;;;5114011;27;20559;-63
2022/02/13 02:49:53;;;;;;;9.02;8.10;;;5.10;96.60;;;;;;5113801;27;20291;-63
2022/02/13 02:52:19;;;;;;;11.25;9.10;;;5.10;96.60;;;;;;5113489;27;20653;-64
2022/02/13 02:54:46;;;;;;;13.27;8.63;;;5.00;96.50;;;;;;5099948;28;20231;-63
2022/02/13 02:57:13;;;;;;;12.18;8.32;;;5.10;96.60;;;;;;5113237;27;20568;-63
2022/02/13 02:59:42;;;;;;;10.30;7.82;;;5.10;96.60;;;;;;5111549;27;20223;-64
2022/02/13 03:02:08;;;;;;;10.30;8.60;;;5.10;96.60;;;;;;5096946;28;20224;-64
2022/02/13 03:04:35;;;;;;;9.73;8.80;;;5.10;96.50;;;;;;5107158;28;20307;-64
2022/02/13 03:07:02;;;;;;;9.75;8.20;;;5.20;96.60;;;;;;5102283;28;20227;-64
2022/02/13 03:09:29;;;;;;;12.73;9.70;;;5.10;96.50;;;;;;5100018;28;20235;-64
2022/02/13 03:11:56;;;;;;;9.98;8.10;;;5.10;96.60;;;;;;5113186;27;20621;-64
2022/02/13 03:14:23;;;;;;;8.13;7.07;;;5.10;96.50;;;;;;5110283;28;20219;-64
2022/02/13 03:16:51;;;;;;;8.50;7.60;;;5.20;96.60;;;;;;5110958;27;20280;-64
2022/02/13 03:19:19;;;;;;;10.65;9.55;;;5.10;96.60;;;;;;5109643;28;20638;-64
2022/02/13 03:21:46;;;;;;;9.23;8.25;;;5.10;96.60;;;;;;5102904;27;20231;-64
2022/02/13 03:24:13;;;;;;;9.15;8.35;;;5.10;96.50;;;;;;5110248;28;20222;-63
2022/02/13 03:26:39;;;;;;;8.68;7.88;;;5.10;96.30;;;;;;5113221;27;20308;-63
2022/02/13 03:29:07;;;;;;;9.23;8.32;;;5.10;96.50;;;;;;5098733;27;20225;-63
2022/02/13 03:31:34;;;;;;;10.20;7.85;;;5.10;96.50;;;;;;5113110;27;20229;-64
2022/02/13 03:34:02;;;;;;;9.90;8.68;;;5.10;96.60;;;;;;5112411;28;20223;-63
2022/02/13 03:36:29;;;;;;;10.63;9.48;;;5.10;96.50;;;;;;5112605;27;20570;-63
2022/02/13 03:38:56;;;;;;;15.15;12.73;;;5.10;96.50;;;;;;5113070;28;20310;-63
2022/02/13 03:41:23;;;;;;;10.05;6.97;;;5.10;96.40;;;;;;5112115;28;20227;-64
2022/02/13 03:43:49;;;;;;;10.35;9.32;;;5.10;96.50;;;;;;5094957;28;20314;-63
2022/02/13 03:46:16;;;;;;;10.90;9.43;;;5.10;96.40;;;;;;5102837;27;20246;-63
2022/02/13 03:48:44;;;;;;;11.63;9.00;;;5.10;96.50;;;;;;5112688;28;20226;-64
2022/02/13 03:51:12;;;;;;;9.90;8.90;;;5.10;96.40;;;;;;5112291;27;20576;-63
2022/02/13 03:53:40;;;;;;;9.98;8.55;;;5.10;96.70;;;;;;5109188;28;20223;-63
2022/02/13 03:56:08;;;;;;;10.52;9.43;;;5.20;96.40;;;;;;5102314;27;20225;-63
2022/02/13 03:58:34;;;;;;;10.30;8.15;;;5.20;96.30;;;;;;5112810;28;20252;-64
2022/02/13 04:01:01;;;;;;;10.70;9.10;;;5.20;96.30;;;;;;5102236;28;20234;-64
2022/02/13 04:03:28;;;;;;;11.02;9.88;;;5.10;96.40;;;;;;5096613;28;20563;-63
2022/02/13 04:05:55;;;;;;;12.30;9.95;;;5.10;96.30;;;;;;5102300;28;20227;-63
2022/02/13 04:08:23;;;;;;;10.60;8.50;;;5.10;96.20;;;;;;5105406;28;20220;-64
2022/02/13 04:10:50;;;;;;;10.05;9.15;;;5.10;96.30;;;;;;5103658;28;20231;-63
2022/02/13 04:13:18;;;;;;;12.75;8.48;;;5.10;96.20;;;;;;5098633;28;20699;-64
2022/02/13 04:15:45;;;;;;;12.05;10.55;;;5.10;96.20;;;;;;5101325;28;20247;-64
2022/02/13 04:18:13;;;;;;;10.13;9.10;;;5.10;96.30;;;;;;5105539;28;20227;-63
2022/02/13 04:20:40;;;;;;;10.05;9.05;;;5.00;96.30;;;;;;5103970;28;20321;-64
2022/02/13 04:23:07;;;;;;;11.75;9.10;;;5.00;96.30;;;;;;5098362;28;20309;-63
2022/02/13 04:25:36;;;;;;;9.68;8.73;;;5.00;96.40;;;;;;5112253;27;20223;-64
2022/02/13 04:28:03;;;;;;;8.85;8.02;;;4.90;96.30;;;;;;5107278;28;20558;-63
2022/02/13 04:30:30;;;;;;;10.05;7.80;;;4.90;96.30;;;;;;5104042;28;20223;-64
2022/02/13 04:32:57;;;;;;;10.32;9.20;;;4.80;96.30;;;;;;5112399;28;20223;-63
2022/02/13 04:35:24;;;;;;;10.85;9.75;;;4.90;96.40;;;;;;5099687;28;20224;-63
2022/02/13 04:37:51;;;;;;;10.75;9.65;;;4.90;96.40;;;;;;5105494;28;20220;-63
2022/02/13 04:40:18;;;;;;;10.70;9.38;;;4.80;96.40;;;;;;5104400;28;20257;-63
2022/02/13 04:42:46;;;;;;;12.02;9.35;;;4.80;96.50;;;;;;5098748;28;20227;-62
2022/02/13 04:45:13;;;;;;;10.93;9.50;;;4.80;96.40;;;;;;5098285;28;20235;-63
2022/02/13 04:47:40;;;;;;;9.48;8.57;;;4.80;96.60;;;;;;5116302;27;20219;-63
2022/02/13 04:50:08;;;;;;;12.48;10.13;;;4.80;96.60;;;;;;5115525;28;20237;-63
2022/02/13 04:52:35;;;;;;;13.77;9.38;;;4.80;96.70;;;;;;5116229;28;20223;-63
2022/02/13 04:55:02;;;;;;;12.65;9.15;;;4.70;96.60;;;;;;5102325;28;20228;-63
2022/02/13 04:57:29;;;;;;;11.25;9.10;;;4.70;96.60;;;;;;5115717;27;20310;-63
2022/02/13 04:59:57;;;;;;;11.93;8.30;;;4.70;96.60;;;;;;5116044;27;20328;-63
2022/02/13 05:02:24;;;;;;;10.82;9.32;;;4.70;96.60;;;;;;5111570;27;20661;-63
2022/02/13 05:04:51;;;;;;;10.73;9.63;;;4.70;96.60;;;;;;5116008;27;20237;-63
2022/02/13 05:07:18;;;;;;;10.45;9.35;;;4.60;96.60;;;;;;5107293;28;20581;-64
2022/02/13 05:09:45;;;;;;;10.02;8.88;;;4.60;96.60;;;;;;5109340;28;20227;-63
2022/02/13 05:12:12;;;;;;;12.40;9.85;;;4.60;96.60;;;;;;5104091;28;20227;-64
2022/02/13 05:14:40;;;;;;;10.40;8.95;;;4.60;96.60;;;;;;5102137;28;20224;-64
2022/02/13 05:17:08;;;;;;;12.93;9.23;;;4.70;96.70;;;;;;5106710;27;20220;-64
2022/02/13 05:19:35;;;;;;;10.50;9.30;;;4.60;96.70;;;;;;5108992;28;21288;-62
2022/02/13 05:22:02;;;;;;;13.02;10.02;;;4.60;96.70;;;;;;5104657;27;20227;-63
2022/02/13 05:24:31;;;;;;;11.73;9.50;;;4.60;96.70;;;;;;5113521;27;20250;-63
2022/02/13 05:26:58;;;;;;;11.57;10.00;;;4.50;96.60;;;;;;5114436;27;20223;-63
2022/02/13 05:29:25;;;;;;;12.90;9.32;;;4.50;96.80;;;;;;5110482;27;20234;-63
2022/02/13 05:31:52;;;;;;;11.30;9.95;;;4.50;96.80;;;;;;5105379;28;20572;-63
2022/02/13 05:34:20;;;;;;;10.80;9.70;;;4.50;96.80;;;;;;5101322;27;20226;-63
2022/02/13 05:36:46;;;;;;;10.00;8.38;;;4.50;96.80;;;;;;5104644;27;20224;-64
2022/02/13 05:39:13;;;;;;;11.85;9.05;;;4.50;96.90;;;;;;5093416;28;20571;-64
2022/02/13 05:41:40;;;;;;;10.20;8.98;;;4.50;96.80;;;;;;5093950;28;20243;-64
2022/02/13 05:44:07;;;;;;;12.52;9.68;;;4.50;96.80;;;;;;5095358;28;20250;-64
2022/02/13 05:46:34;;;;;;;12.27;9.48;;;4.50;96.90;;;;;;5094696;28;20228;-64
2022/02/13 05:49:02;;;;;;;10.82;9.27;;;4.50;96.90;;;;;;5095146;28;20234;-64
2022/02/13 05:51:30;;;;;;;12.30;10.23;;;4.40;96.90;;;;;;5094817;28;20242;-64
2022/02/13 05:53:58;;;;;;;17.25;15.55;;;4.40;97.10;;;;;;5094733;28;20231;-64
2022/02/13 05:56:25;;;;;;;15.73;14.02;;;4.40;97.10;;;;;;5094378;28;20702;-64
2022/02/13 05:58:53;;;;;;;19.33;16.20;;;4.40;97.10;;;;;;5094248;28;20675;-64
2022/02/13 06:01:20;;;;;;;19.70;17.60;;;4.40;97.10;;;;;;5094183;28;20244;-64
2022/02/13 06:03:47;;;;;;;17.70;15.90;;;4.40;97.20;;;;;;5094858;28;20223;-64
2022/02/13 06:06:14;;;;;;;12.80;11.50;;;4.50;97.10;;;;;;5094268;28;20243;-63
2022/02/13 06:08:43;;;;;;;12.13;10.93;;;4.40;97.10;;;;;;5094462;28;20223;-64
2022/02/13 06:11:12;;;;;;;11.35;10.20;;;4.50;97.10;;;;;;5094575;28;20573;-63
2022/02/13 06:13:39;;;;;;;14.80;11.50;;;4.50;97.20;;;;;;5094074;28;20222;-63
2022/02/13 06:16:06;;;;;;;25.80;20.33;;;4.50;97.40;;;;;;5094479;28;20253;-63
2022/02/13 06:18:34;;;;;;;12.05;10.75;;;4.40;97.00;;;;;;5094115;28;20548;-63
2022/02/13 06:21:01;;;;;;;11.20;10.05;;;4.40;96.90;;;;;;5094528;28;20289;-63
2022/02/13 06:23:28;;;;;;;11.57;10.32;;;4.40;96.90;;;;;;5093819;28;20220;-63
2022/02/13 06:25:57;;;;;;;14.15;12.75;;;4.40;97.00;;;;;;5094318;28;20269;-64
2022/02/13 06:28:24;;;;;;;25.63;22.83;;;4.50;97.00;;;;;;5093802;28;20296;-63
2022/02/13 06:30:51;;;;;;;19.38;17.48;;;4.40;97.00;;;;;;5094126;28;20307;-64
2022/02/13 06:33:18;;;;;;;14.10;12.70;;;4.40;97.20;;;;;;5093802;28;20230;-63
2022/02/13 06:35:45;;;;;;;11.63;9.57;;;4.40;97.30;;;;;;5094268;28;20219;-64
2022/02/13 06:38:12;;;;;;;15.18;12.80;;;4.40;97.30;;;;;;5093992;28;20238;-63
2022/02/13 06:40:40;;;;;;;16.08;12.48;;;4.40;97.30;;;;;;5093740;28;20227;-64
2022/02/13 06:43:09;;;;;;;14.57;13.05;;;4.40;97.30;;;;;;5094094;28;20228;-64
2022/02/13 06:45:37;;;;;;;17.48;15.75;;;4.30;97.30;;;;;;5093441;28;20223;-64
2022/02/13 06:48:04;;;;;;;22.35;19.65;;;4.30;97.50;;;;;;5094208;28;20235;-64
2022/02/13 06:50:31;;;;;;;24.02;18.30;;;4.40;97.50;;;;;;5093429;28;20231;-64
2022/02/13 06:52:58;;;;;;;15.02;12.60;;;4.40;97.50;;;;;;5093709;28;20712;-64
2022/02/13 06:55:25;;;;;;;14.00;11.55;;;4.40;97.60;;;;;;5093265;28;20231;-63
2022/02/13 06:57:52;;;;;;;16.38;13.35;;;4.30;97.50;;;;;;5093673;28;20714;-63
2022/02/13 07:00:29;;;;;;;16.98;15.18;;;4.30;97.60;;;;;;5093158;28;20233;-64
2022/02/13 07:02:56;;;;;;;15.55;14.10;;;4.40;97.60;;;;;;5093697;28;20223;-63
2022/02/13 07:05:23;;;;;;;12.30;9.77;;;4.50;97.60;;;;;;5093234;28;20224;-63
2022/02/13 07:07:50;;;;;;;10.93;9.77;;;4.50;97.50;;;;;;5093492;28;20570;-64
2022/02/13 07:10:18;;;;;;;10.95;9.77;;;4.50;97.50;;;;;;5092521;28;20296;-63
2022/02/13 07:12:45;;;;;;;10.82;9.38;;;4.50;97.50;;;;;;5093460;28;20323;-64
2022/02/13 07:15:12;;;;;;;9.82;8.82;;;4.50;97.50;;;;;;5093512;28;20235;-64
2022/02/13 07:17:41;;;;;;;10.15;9.15;;;4.50;97.40;;;;;;5093144;28;20685;-64
2022/02/13 07:20:08;;;;;;;9.68;8.77;;;4.50;97.40;;;;;;5093399;28;20224;-64
2022/02/13 07:22:35;;;;;;;11.00;8.90;;;4.40;97.20;;;;;;5092789;28;20234;-64
2022/02/13 07:25:02;;;;;;;10.02;8.20;;;4.40;97.40;;;;;;5093382;28;20298;-64
2022/02/13 07:27:30;;;;;;;10.05;9.05;;;4.40;97.40;;;;;;5092745;28;20220;-64
2022/02/13 07:29:57;;;;;;;11.30;7.95;;;4.40;97.40;;;;;;5093154;28;20234;-64
2022/02/13 07:32:24;;;;;;;11.50;9.15;;;4.40;97.60;;;;;;5092801;28;20220;-64
2022/02/13 07:34:52;;;;;;;11.13;9.18;;;4.40;97.70;;;;;;5093089;28;20313;-64
2022/02/13 07:37:19;;;;;;;10.70;9.45;;;4.40;97.60;;;;;;5093051;28;20552;-64
2022/02/13 07:39:47;;;;;;;24.90;16.95;;;4.40;97.60;;;;;;5092674;28;20323;-64
2022/02/13 07:42:14;;;;;;;12.45;10.60;;;4.40;97.70;;;;;;5093042;28;20254;-64
2022/02/13 07:44:42;;;;;;;10.23;9.20;;;4.30;97.60;;;;;;5092423;28;20388;-64
2022/02/13 07:47:09;;;;;;;15.00;11.63;;;4.40;97.70;;;;;;5092930;28;20546;-64
2022/02/13 07:49:36;;;;;;;14.50;12.00;;;4.40;97.70;;;;;;5092402;28;20226;-64
2022/02/13 07:52:06;;;;;;;11.63;9.65;;;4.50;97.80;;;;;;5092747;28;20522;-62
2022/02/13 07:54:33;;;;;;;11.68;9.15;;;4.60;97.80;;;;;;5092289;28;20303;-63
2022/02/13 07:57:00;;;;;;;12.20;11.00;;;4.60;97.50;;;;;;5092700;28;20215;-63
2022/02/13 07:59:27;;;;;;;10.07;9.02;;;4.60;97.40;;;;;;5092317;28;20230;-64
2022/02/13 08:01:53;;;;;;;14.95;13.45;;;4.70;97.40;;;;;;5092820;28;20565;-64
2022/02/13 08:04:20;;;;;;;18.08;13.02;;;4.70;97.40;;;;;;5092610;28;20773;-64
2022/02/13 08:06:47;;;;;;;20.40;18.17;;;4.80;97.50;;;;;;5092255;28;20219;-64
2022/02/13 08:09:15;;;;;;;16.15;14.55;;;4.80;97.50;;;;;;5092681;28;20685;-63
2022/02/13 08:11:42;;;;;;;13.55;12.15;;;4.80;97.30;;;;;;5092285;28;20234;-63
2022/02/13 08:14:09;;;;;;;19.10;15.68;;;4.80;97.40;;;;;;5092824;28;20273;-63
2022/02/13 08:16:36;;;;;;;15.45;11.45;;;4.70;97.20;;;;;;5092250;28;20220;-63
2022/02/13 08:19:03;;;;;;;12.55;11.13;;;4.80;97.40;;;;;;5092540;28;20228;-63
2022/02/13 08:21:32;;;;;;;10.50;9.40;;;4.80;97.50;;;;;;5094190;28;20227;-65
2022/02/13 08:24:00;;;;;;;10.85;8.30;;;4.80;97.50;;;;;;5096611;28;20246;-62
2022/02/13 08:26:33;;;;;;;9.48;8.05;;;4.80;97.50;;;;;;5096271;28;20239;-63
2022/02/13 08:29:01;;;;;;;10.23;9.20;;;4.90;97.50;;;;;;5096466;28;20227;-64
2022/02/13 08:31:27;;;;;;;10.55;9.05;;;4.90;97.20;;;;;;5096167;28;20239;-63
2022/02/13 08:33:54;;;;;;;11.40;8.35;;;4.90;97.20;;;;;;5096421;28;20223;-64
2022/02/13 08:36:23;;;;;;;12.35;10.00;;;5.00;97.20;;;;;;5096461;28;20669;-64
2022/02/13 08:38:50;;;;;;;12.68;10.18;;;5.00;97.30;;;;;;5096207;28;20230;-64
2022/02/13 08:41:17;;;;;;;11.55;7.97;;;5.10;97.40;;;;;;5096465;28;20573;-63
2022/02/13 08:43:45;;;;;;;11.27;10.15;;;5.10;97.20;;;;;;5095943;28;20234;-64
2022/02/13 08:46:12;;;;;;;9.18;7.85;;;5.20;97.30;;;;;;5096283;28;20224;-64
2022/02/13 08:48:39;;;;;;;9.15;8.25;;;5.20;97.00;;;;;;5095827;28;20626;-63
2022/02/13 08:51:06;;;;;;;8.07;7.25;;;5.30;97.10;;;;;;5096153;28;20228;-63
2022/02/13 08:53:33;;;;;;;13.82;8.52;;;5.30;97.00;;;;;;5095422;28;20215;-63
2022/02/13 08:55:59;;;;;;;9.13;8.13;;;5.30;97.10;;;;;;5096050;28;20322;-64
2022/02/13 08:58:26;;;;;;;8.55;7.25;;;5.40;97.10;;;;;;5096016;28;20223;-63
2022/02/13 09:00:56;;;;;;;9.15;7.88;;;5.40;97.10;;;;;;5095722;28;20227;-63
2022/02/13 09:03:23;;;;;;;8.75;7.95;;;5.50;97.10;;;;;;5095981;28;20238;-64
2022/02/13 09:05:49;;;;;;;9.95;8.95;;;5.70;97.10;;;;;;5095627;28;20708;-63
2022/02/13 09:08:16;;;;;;;13.10;10.65;;;5.70;96.90;;;;;;5095560;28;20234;-64
2022/02/13 09:10:43;;;;;;;10.90;9.80;;;5.80;96.80;;;;;;5095331;28;20228;-64
2022/02/13 09:13:11;;;;;;;9.05;8.15;;;5.80;96.80;;;;;;5095911;28;20241;-64
2022/02/13 09:15:38;;;;;;;11.10;9.75;;;5.90;96.90;;;;;;5095196;28;20302;-64
2022/02/13 09:18:11;;;;;;;10.63;9.10;;;6.00;96.70;;;;;;5095518;28;20230;-64
2022/02/13 09:20:44;;;;;;;11.23;10.07;;;6.10;96.70;;;;;;5095324;28;20228;-64
2022/02/13 09:23:17;;;;;;;10.05;9.02;;;6.10;96.50;;;;;;5095428;28;20228;-64
2022/02/13 09:25:46;;;;;;;15.02;11.27;;;6.20;96.50;;;;;;5095147;28;20220;-64
2022/02/13 09:28:15;;;;;;;14.25;12.95;;;6.30;96.40;;;;;;5095610;28;20306;-64
2022/02/13 09:30:46;;;;;;;11.88;10.57;;;6.40;96.30;;;;;;5094958;28;20681;-64
2022/02/13 09:33:16;;;;;;;11.05;9.77;;;6.40;96.00;;;;;;5094288;28;20216;-63
2022/02/13 09:35:44;;;;;;;10.00;8.82;;;6.40;96.00;;;;;;5094979;28;20215;-63
2022/02/13 09:38:15;;;;;;;10.10;9.10;;;6.60;96.00;;;;;;5095218;28;20227;-63
2022/02/13 09:40:44;;;;;;;9.45;8.43;;;6.60;95.80;;;;;;5094695;28;20297;-62
2022/02/13 09:43:14;;;;;;;10.20;7.80;;;6.60;95.40;;;;;;5095105;28;20298;-63
2022/02/13 09:45:44;;;;;;;8.25;7.43;;;6.60;95.30;;;;;;5094842;28;20461;-64
2022/02/13 09:48:16;;;;;;;8.35;7.47;;;6.70;95.20;;;;;;5094972;28;20701;-63
2022/02/13 09:50:44;;;;;;;8.70;7.90;;;6.80;95.20;;;;;;5094672;28;20292;-63
2022/02/13 09:53:12;;;;;;;13.45;10.80;;;6.90;95.30;;;;;;5095089;28;20223;-63
2022/02/13 09:55:44;;;;;;;11.27;7.63;;;6.90;95.20;;;;;;5094342;28;20235;-64
2022/02/13 09:58:15;;;;;;;6.95;6.25;;;6.90;95.00;;;;;;5094831;28;20298;-63
2022/02/13 10:00:55;;;;;;;6.22;5.63;;;7.00;94.90;;;;;;5094432;28;20235;-63
2022/02/13 10:03:28;;;;;;;7.63;6.93;;;7.10;94.80;;;;;;5094939;28;20220;-63
2022/02/13 10:05:57;;;;;;;10.85;6.90;;;7.10;94.70;;;;;;5094305;28;20661;-63
2022/02/13 10:08:30;;;;;;;9.65;7.00;;;7.20;94.60;;;;;;5094540;28;20309;-64
2022/02/13 10:11:12;;;;;;;8.00;6.10;;;7.20;94.10;;;;;;5094192;28;20220;-64
2022/02/13 10:13:44;;;;;;;16.73;12.20;;;7.20;93.80;;;;;;5094148;28;20228;-63
2022/02/13 10:16:17;;;;;;;10.82;9.20;;;7.30;93.30;;;;;;5094849;28;20251;-64
2022/02/13 10:18:48;;;;;;;9.43;8.50;;;7.40;93.40;;;;;;5094070;28;20294;-64
2022/02/13 10:21:34;;;;;;;8.68;7.78;;;7.40;93.10;;;;;;5094364;28;20230;-63
2022/02/13 10:24:29;;;;;;;8.68;7.88;;;7.40;92.40;;;;;;5093985;28;20227;-63
2022/02/13 10:27:09;;;;;;;10.85;7.72;;;7.50;92.40;;;;;;5093989;28;20698;-63
2022/02/13 10:29:38;;;;;;;9.30;7.85;;;7.60;92.40;;;;;;5094176;28;20228;-63
2022/02/13 10:32:17;;;;;;;11.35;8.80;;;7.60;92.30;;;;;;5094057;28;20220;-64
2022/02/13 10:35:07;;;;;;;8.77;5.95;;;7.60;92.30;;;;;;5093895;28;20231;-64
2022/02/13 10:37:43;;;;;;;7.22;6.47;;;7.60;92.10;;;;;;5094120;28;20220;-64
2022/02/13 10:40:12;;;;;;;14.18;8.50;;;7.70;92.00;;;;;;5093828;28;20945;-64
2022/02/13 10:42:40;;;;;;;6.70;6.10;;;7.70;91.90;;;;;;5093982;28;20238;-64
2022/02/13 10:45:18;;;;;;;8.02;6.55;;;7.80;91.70;;;;;;5093368;28;20680;-63
2022/02/13 10:47:46;;;;;;;6.80;6.13;;;7.70;91.60;;;;;;5093963;28;20775;-64
2022/02/13 10:50:15;;;;;;;7.15;6.18;;;7.80;91.70;;;;;;5093584;28;20219;-63
2022/02/13 10:52:42;;;;;;;7.70;5.75;;;7.80;91.70;;;;;;5093852;28;20570;-63
2022/02/13 10:55:11;;;;;;;10.65;6.82;;;7.80;91.60;;;;;;5093375;28;20293;-64
2022/02/13 10:57:40;;;;;;;6.25;5.65;;;7.80;91.70;;;;;;5093671;28;20281;-64
2022/02/13 11:00:09;;;;;;;6.63;5.88;;;8.00;91.80;;;;;;5093308;28;20239;-64
2022/02/13 11:02:38;;;;;;;6.05;5.55;;;8.00;91.60;;;;;;5093787;28;20244;-63
2022/02/13 11:05:07;;;;;;;5.40;4.90;;;8.10;91.60;;;;;;5093236;28;20285;-63
2022/02/13 11:07:38;;;;;;;5.53;4.97;;;8.20;91.40;;;;;;5093376;28;20277;-64
2022/02/13 11:10:09;;;;;;;10.18;8.75;;;8.20;90.80;;;;;;5093138;28;20228;-64
2022/02/13 11:12:36;;;;;;;9.95;8.25;;;8.20;90.80;;;;;;5093798;28;20299;-64
2022/02/13 11:15:18;;;;;;;9.48;8.45;;;8.30;90.80;;;;;;5093086;28;20228;-64
2022/02/13 11:17:46;;;;;;;8.82;7.65;;;8.40;90.80;;;;;;5093596;28;20223;-64
2022/02/13 11:20:14;;;;;;;7.60;6.53;;;8.50;90.80;;;;;;5093029;28;20658;-64
2022/02/13 11:22:45;;;;;;;8.60;6.53;;;8.50;90.90;;;;;;5093309;28;20227;-63
2022/02/13 11:25:12;;;;;;;6.57;5.95;;;8.50;90.40;;;;;;5092933;28;20573;-63
2022/02/13 11:27:57;;;;;;;5.97;5.30;;;8.50;90.00;;;;;;5093228;28;20232;-64
2022/02/13 11:30:45;;;;;;;6.63;5.97;;;8.50;89.30;;;;;;5092956;28;20215;-64
2022/02/13 11:33:13;;;;;;;7.50;5.90;;;8.50;88.90;;;;;;5092847;28;20699;-64
2022/02/13 11:35:55;;;;;;;8.20;5.60;;;8.40;88.60;;;;;;5093276;28;20234;-63
2022/02/13 11:38:57;;;;;;;5.90;5.28;;;8.40;89.10;;;;;;5092473;28;20220;-63
2022/02/13 11:42:09;;;;;;;5.78;5.18;;;8.50;89.40;;;;;;5092550;28;20231;-63
2022/02/13 11:44:50;;;;;;;6.60;6.00;;;8.60;89.10;;;;;;5093279;28;20695;-64
2022/02/13 11:47:20;;;;;;;5.90;5.45;;;8.60;88.20;;;;;;5093323;28;20211;-64
2022/02/13 11:50:24;;;;;;;5.60;5.10;;;8.70;88.20;;;;;;5092475;28;20311;-64
2022/02/13 11:53:03;;;;;;;14.57;5.72;;;8.70;88.00;;;;;;5092539;28;20215;-64
2022/02/13 11:55:37;;;;;;;5.88;5.30;;;8.80;87.80;;;;;;5091559;28;20234;-64
2022/02/13 11:58:09;;;;;;;7.75;6.13;;;8.80;87.70;;;;;;5092739;28;20561;-64
2022/02/13 12:00:42;;;;;;;9.57;6.05;;;8.90;87.70;;;;;;5092166;28;20246;-64
2022/02/13 12:03:24;;;;;;;7.00;6.30;;;8.80;86.20;;;;;;5092608;28;20270;-64
2022/02/13 12:06:21;;;;;;;6.63;6.03;;;8.70;86.30;;;;;;5092386;28;20224;-64
2022/02/13 12:08:48;;;;;;;12.95;10.38;;;8.80;87.10;;;;;;5091925;28;20311;-64
2022/02/13 12:11:18;;;;;;;13.07;8.73;;;8.80;87.40;;;;;;5120384;27;20314;-64
2022/02/13 12:13:45;;;;;;;10.07;6.47;;;8.90;87.40;;;;;;5133106;27;20233;-64
2022/02/13 12:16:12;;;;;;;6.43;5.72;;;8.90;86.20;;;;;;5133449;27;20222;-64
2022/02/13 12:18:39;;;;;;;8.60;5.50;;;9.00;86.50;;;;;;5132872;27;20301;-64
2022/02/13 12:21:08;;;;;;;5.65;5.15;;;9.00;86.20;;;;;;5133506;27;20325;-63
2022/02/13 12:23:36;;;;;;;5.97;5.40;;;8.90;85.60;;;;;;5132818;27;20218;-63
2022/02/13 12:26:04;;;;;;;6.88;4.90;;;8.80;85.00;;;;;;5133303;27;20238;-64
2022/02/13 12:28:34;;;;;;;7.55;6.03;;;8.80;85.00;;;;;;5132938;27;20227;-64
2022/02/13 12:31:03;;;;;;;5.97;5.47;;;8.80;85.60;;;;;;5133269;27;20576;-63
2022/02/13 12:33:31;;;;;;;6.57;6.07;;;8.90;86.50;;;;;;5132870;27;20242;-62
2022/02/13 12:35:59;;;;;;;5.57;4.82;;;8.90;85.50;;;;;;5133255;27;20215;-63
2022/02/13 12:38:30;;;;;;;5.30;4.80;;;8.90;85.80;;;;;;5133178;27;20672;-63
2022/02/13 12:40:58;;;;;;;12.20;7.80;;;8.90;85.60;;;;;;5133003;27;20279;-63
2022/02/13 12:43:25;;;;;;;10.15;9.15;;;8.90;85.60;;;;;;5133304;27;20226;-64
2022/02/13 12:45:56;;;;;;;10.75;9.65;;;9.00;85.90;;;;;;5132769;27;20305;-64
2022/02/13 12:48:26;;;;;;;6.47;5.97;;;9.10;85.60;;;;;;5133054;27;20222;-64
2022/02/13 12:50:56;;;;;;;6.78;5.47;;;9.10;84.10;;;;;;5132811;27;20234;-64
2022/02/13 12:53:25;;;;;;;5.82;5.30;;;9.20;83.50;;;;;;5132966;27;20218;-64